Time;durP1;ratioP1;P1;durP2;ratioP2;P2;SDS_P1;SDS_P2;PMS_P1;PMS_P2;Temp;Humidity;BMP_temperature;BMP_pressure;BME280_temperature;BME280_humidity;BME280_pressure;Samples;Min_cycle;Max_cycle;Signal;HPM_P1;HPM_P2
2022/09/04 00:00:58;;;;;;;5.15;2.10;;;;;;;;;;5110026;28;20433;-77
2022/09/04 00:03:38;;;;;;;7.57;2.05;;;;;;;;;;5092861;28;20446;-77
2022/09/04 00:06:11;;;;;;;5.60;1.90;;;17.10;99.90;;;;;;5085123;28;20427;-77
2022/09/04 00:08:43;;;;;;;4.38;2.00;;;;;;;;;;5087365;28;20412;-76
2022/09/04 00:11:51;;;;;;;4.35;1.90;;;17.20;99.90;;;;;;5094353;28;20775;-76
2022/09/04 00:14:20;;;;;;;6.87;1.90;;;17.10;99.90;;;;;;5100044;28;20488;-76
2022/09/04 00:17:02;;;;;;;4.97;2.00;;;17.20;99.90;;;;;;5110842;28;20492;-76
2022/09/04 00:20:03;;;;;;;7.57;2.40;;;17.10;99.90;;;;;;5092474;28;20915;-76
2022/09/04 00:22:51;;;;;;;5.90;2.08;;;;;;;;;;5063362;28;20460;-76
2022/09/04 00:25:51;;;;;;;5.05;1.90;;;16.60;99.90;;;;;;5110796;28;20443;-76
2022/09/04 00:28:30;;;;;;;5.57;1.90;;;16.90;99.90;;;;;;5109751;28;20930;-76
2022/09/04 00:31:20;;;;;;;4.28;1.80;;;16.80;99.90;;;;;;5113719;28;20396;-77
2022/09/04 00:34:06;;;;;;;4.90;1.88;;;;;;;;;;5103380;28;20450;-76
2022/09/04 00:36:34;;;;;;;5.40;2.03;;;;;;;;;;5035885;28;20522;-77
2022/09/04 00:39:22;;;;;;;4.38;2.00;;;16.80;99.90;;;;;;5088948;28;20428;-76
2022/09/04 00:42:04;;;;;;;4.90;1.80;;;;;;;;;;5102600;28;20427;-76
2022/09/04 00:45:06;;;;;;;5.07;2.20;;;17.00;99.90;;;;;;5102181;28;20500;-76
2022/09/04 00:48:09;;;;;;;6.38;2.10;;;16.70;99.90;;;;;;5090725;28;20750;-76
2022/09/04 00:51:10;;;;;;;4.67;1.90;;;16.70;99.90;;;;;;5073965;28;20509;-77
2022/09/04 00:53:45;;;;;;;5.88;2.00;;;;;;;;;;5105217;28;20428;-77
2022/09/04 00:56:49;;;;;;;4.43;2.10;;;16.90;99.90;;;;;;5092143;28;20478;-78
2022/09/04 00:59:24;;;;;;;3.67;2.20;;;;;;;;;;5088897;28;20421;-75
2022/09/04 01:01:55;;;;;;;4.78;2.10;;;16.60;99.90;;;;;;5074403;28;20826;-77
2022/09/04 01:04:35;;;;;;;8.55;2.40;;;;;;;;;;5097418;28;20423;-77
2022/09/04 01:07:34;;;;;;;6.70;2.13;;;16.60;99.90;;;;;;5109273;28;20424;-77
2022/09/04 01:10:21;;;;;;;5.30;2.08;;;16.30;99.90;;;;;;5095315;28;20428;-77
2022/09/04 01:13:24;;;;;;;6.88;2.05;;;16.50;99.90;;;;;;5092879;28;20454;-77
2022/09/04 01:16:09;;;;;;;6.33;2.00;;;;;;;;;;5092082;28;20426;-77
2022/09/04 01:18:42;;;;;;;6.30;2.30;;;;;;;;;;5092279;28;20398;-78
2022/09/04 01:21:18;;;;;;;4.07;1.97;;;;;;;;;;5068102;28;20422;-77
2022/09/04 01:23:53;;;;;;;5.25;2.10;;;;;;;;;;5056427;28;20415;-78
2022/09/04 01:26:35;;;;;;;4.93;2.20;;;16.40;99.90;;;;;;5077260;28;20420;-78
2022/09/04 01:29:20;;;;;;;3.42;1.80;;;;;;;;;;5072876;28;20403;-79
2022/09/04 01:31:56;;;;;;;2.88;2.00;;;;;;;;;;5072376;28;20430;-78
2022/09/04 01:34:34;;;;;;;5.32;2.22;;;16.10;99.90;;;;;;5072666;28;20778;-76
2022/09/04 01:37:25;;;;;;;5.10;2.10;;;16.10;99.90;;;;;;5055053;28;20411;-78
2022/09/04 01:40:14;;;;;;;4.45;2.10;;;16.10;99.90;;;;;;5076327;28;20894;-78
2022/09/04 01:42:58;;;;;;;3.90;2.20;;;16.10;99.90;;;;;;5080389;28;20477;-78
2022/09/04 01:45:41;;;;;;;9.07;2.30;;;16.10;99.90;;;;;;5079903;28;20627;-76
2022/09/04 01:48:11;;;;;;;4.88;2.33;;;16.10;99.90;;;;;;5090788;28;20841;-75
2022/09/04 01:50:38;;;;;;;8.73;2.53;;;16.10;99.90;;;;;;5077025;28;20503;-75
2022/09/04 01:53:16;;;;;;;4.18;2.13;;;16.10;99.90;;;;;;5082413;28;20433;-74
2022/09/04 01:56:03;;;;;;;3.78;2.20;;;;;;;;;;5078634;28;20494;-74
2022/09/04 01:58:35;;;;;;;5.17;2.27;;;;;;;;;;5071470;28;20431;-75
2022/09/04 02:01:04;;;;;;;4.07;2.30;;;;;;;;;;5080612;28;20452;-75
2022/09/04 02:03:45;;;;;;;6.78;2.40;;;;;;;;;;5088559;28;20414;-74
2022/09/04 02:06:41;;;;;;;6.10;2.50;;;15.80;99.90;;;;;;5071196;28;20451;-74
2022/09/04 02:09:22;;;;;;;4.05;2.30;;;15.80;99.90;;;;;;5053755;28;20931;-75
2022/09/04 02:12:17;;;;;;;6.68;2.28;;;15.80;99.90;;;;;;5056624;28;20953;-76
2022/09/04 02:14:51;;;;;;;3.90;2.17;;;15.80;99.90;;;;;;5066058;28;20424;-77
2022/09/04 02:17:46;;;;;;;5.47;2.40;;;15.80;99.90;;;;;;5071277;28;20457;-77
2022/09/04 02:20:25;;;;;;;5.90;2.50;;;;;;;;;;5102942;28;20434;-77
2022/09/04 02:22:58;;;;;;;5.00;2.30;;;;;;;;;;5088325;28;20952;-77
2022/09/04 02:25:28;;;;;;;5.15;2.20;;;;;;;;;;5074358;28;20939;-76
2022/09/04 02:27:54;;;;;;;7.30;2.60;;;;;;;;;;5070631;28;20503;-76
2022/09/04 02:30:20;;;;;;;5.93;2.20;;;;;;;;;;5052539;28;20443;-76
2022/09/04 02:32:46;;;;;;;4.50;2.25;;;;;;;;;;5079967;28;20440;-76
2022/09/04 02:35:15;;;;;;;5.07;2.55;;;;;;;;;;5078112;28;20949;-76
2022/09/04 02:37:44;;;;;;;4.22;2.60;;;;;;;;;;5054440;28;20845;-76
2022/09/04 02:40:25;;;;;;;5.78;2.22;;;15.50;99.90;;;;;;5077875;28;20418;-76
2022/09/04 02:43:09;;;;;;;4.78;2.33;;;15.50;99.90;;;;;;5086369;28;20447;-76
2022/09/04 02:45:38;;;;;;;5.10;2.55;;;;;;;;;;5076020;28;20549;-76
2022/09/04 02:48:18;;;;;;;5.93;2.67;;;;;;;;;;5054679;28;20407;-76
2022/09/04 02:51:21;;;;;;;6.05;2.70;;;15.50;99.90;;;;;;5089228;28;20487;-77
2022/09/04 02:53:56;;;;;;;5.22;2.92;;;;;;;;;;5066688;28;20506;-76
2022/09/04 02:56:34;;;;;;;5.60;2.57;;;;;;;;;;5070647;28;20435;-77
2022/09/04 02:59:10;;;;;;;6.30;2.70;;;;;;;;;;5058274;28;20404;-77
2022/09/04 03:02:00;;;;;;;5.38;2.88;;;15.40;99.90;;;;;;5069930;28;20420;-75
2022/09/04 03:04:48;;;;;;;7.43;2.90;;;15.30;99.90;;;;;;5076928;28;20419;-75
2022/09/04 03:07:33;;;;;;;5.72;2.80;;;;;;;;;;5070554;28;20411;-75
2022/09/04 03:10:08;;;;;;;5.97;2.80;;;;;;;;;;5070287;28;20487;-75
2022/09/04 03:12:46;;;;;;;6.45;2.90;;;15.20;99.90;;;;;;5070413;28;20886;-76
2022/09/04 03:15:28;;;;;;;7.03;2.75;;;;;;;;;;5081464;28;20429;-76
2022/09/04 03:18:03;;;;;;;5.05;2.65;;;14.90;99.90;;;;;;5090893;28;20406;-76
2022/09/04 03:20:37;;;;;;;6.68;2.90;;;15.20;99.90;;;;;;5072832;28;20494;-76
2022/09/04 03:23:03;;;;;;;4.13;2.65;;;;;;;;;;5070523;28;20465;-76
2022/09/04 03:25:39;;;;;;;7.28;3.00;;;;;;;;;;5073907;28;20424;-76
2022/09/04 03:28:08;;;;;;;7.28;2.78;;;;;;;;;;5071838;28;20427;-75
2022/09/04 03:30:36;;;;;;;4.43;2.70;;;15.00;99.90;;;;;;5064284;28;20419;-76
2022/09/04 03:33:28;;;;;;;8.68;3.03;;;14.70;99.90;;;;;;5053795;28;20435;-76
2022/09/04 03:36:06;;;;;;;4.50;2.63;;;;;;;;;;5075011;28;20431;-76
2022/09/04 03:38:38;;;;;;;5.97;2.80;;;;;;;;;;5074183;28;20422;-76
2022/09/04 03:41:11;;;;;;;6.20;2.85;;;;;;;;;;5076672;28;20426;-76
2022/09/04 03:43:58;;;;;;;5.80;2.80;;;14.90;99.90;;;;;;5073349;28;20510;-76
2022/09/04 03:46:24;;;;;;;6.93;2.88;;;;;;;;;;5083568;28;20422;-76
2022/09/04 03:49:05;;;;;;;5.00;2.80;;;;;;;;;;5073621;28;20411;-76
2022/09/04 03:51:34;;;;;;;7.47;3.30;;;;;;;;;;5074615;28;20429;-76
2022/09/04 03:54:27;;;;;;;4.30;2.60;;;14.90;99.90;;;;;;5093927;28;20494;-76
2022/09/04 03:57:22;;;;;;;6.40;2.88;;;;;;;;;;5090674;28;20433;-75
2022/09/04 03:59:56;;;;;;;6.90;2.80;;;;;;;;;;5068563;28;20415;-75
2022/09/04 04:02:28;;;;;;;8.02;3.03;;;14.70;99.90;;;;;;5056858;28;20427;-75
2022/09/04 04:04:55;;;;;;;5.70;3.03;;;;;;;;;;5073685;28;20411;-76
2022/09/04 04:07:21;;;;;;;8.63;2.80;;;;;;;;;;5072712;28;20424;-76
2022/09/04 04:09:50;;;;;;;6.72;2.88;;;;;;;;;;5085217;28;20424;-78
2022/09/04 04:12:26;;;;;;;5.95;2.90;;;;;;;;;;5091029;28;20419;-76
2022/09/04 04:15:00;;;;;;;8.63;3.20;;;;;;;;;;5075961;28;20414;-75
2022/09/04 04:17:57;;;;;;;6.00;2.80;;;14.60;99.90;;;;;;5091800;28;20449;-75
2022/09/04 04:20:42;;;;;;;6.15;2.92;;;14.70;99.90;;;;;;5087256;28;20464;-75
2022/09/04 04:23:08;;;;;;;5.78;2.90;;;;;;;;;;5088997;28;20421;-75
2022/09/04 04:26:06;;;;;;;6.43;3.10;;;14.70;99.90;;;;;;5074166;28;20405;-75
2022/09/04 04:28:59;;;;;;;6.10;3.00;;;;;;;;;;5079624;28;20510;-75
2022/09/04 04:31:25;;;;;;;5.43;2.90;;;;;;;;;;5036311;28;20497;-75
2022/09/04 04:34:02;;;;;;;6.20;3.20;;;;;;;;;;5089670;28;20803;-76
2022/09/04 04:36:51;;;;;;;7.32;3.13;;;;;;;;;;5056363;28;20420;-75
2022/09/04 04:39:54;;;;;;;4.40;2.90;;;14.70;99.90;;;;;;5072098;28;20946;-76
2022/09/04 04:42:42;;;;;;;5.85;3.10;;;;;;;;;;5073801;28;20414;-75
2022/09/04 04:48:18;;;;;;;8.15;3.20;;;;;;;;;;5089453;28;20421;-76
2022/09/04 04:51:09;;;;;;;6.45;3.28;;;14.70;99.90;;;;;;5055510;28;20395;-76
2022/09/04 04:53:40;;;;;;;6.13;3.10;;;;;;;;;;5073013;28;20450;-75
2022/09/04 04:56:13;;;;;;;4.90;3.00;;;;;;;;;;5082112;28;20418;-76
2022/09/04 04:58:39;;;;;;;6.90;3.30;;;;;;;;;;5083778;28;20915;-75
2022/09/04 05:01:16;;;;;;;3.90;2.85;;;;;;;;;;5070721;28;20440;-75
2022/09/04 05:03:52;;;;;;;8.05;3.20;;;;;;;;;;5073482;28;20467;-75
2022/09/04 05:06:22;;;;;;;6.85;3.20;;;;;;;;;;5070679;28;20501;-75
2022/09/04 05:08:51;;;;;;;6.45;3.40;;;;;;;;;;5071253;28;20432;-74
2022/09/04 05:11:49;;;;;;;8.23;3.45;;;14.60;99.90;;;;;;5054894;28;20411;-75
2022/09/04 05:14:33;;;;;;;7.50;3.00;;;;;;;;;;5070359;28;20418;-74
2022/09/04 05:17:13;;;;;;;4.95;2.97;;;;;;;;;;5085091;27;20426;-74
2022/09/04 05:19:42;;;;;;;5.88;3.10;;;;;;;;;;5094160;27;20468;-74
2022/09/04 05:22:08;;;;;;;6.28;2.90;;;;;;;;;;5098627;27;20699;-74
2022/09/04 05:24:37;;;;;;;5.53;2.70;;;;;;;;;;5115503;27;20455;-76
2022/09/04 05:27:15;;;;;;;6.67;3.00;;;;;;;;;;5105300;28;20476;-76
2022/09/04 05:29:53;;;;;;;6.15;2.88;;;;;;;;;;5089427;28;20432;-76
2022/09/04 05:32:34;;;;;;;6.60;3.03;;;14.70;99.90;;;;;;5090606;27;20422;-76
2022/09/04 05:35:21;;;;;;;7.00;3.08;;;14.80;99.90;;;;;;5057394;28;20422;-75
2022/09/04 05:38:01;;;;;;;5.65;3.10;;;;;;;;;;5104218;27;20418;-76
2022/09/04 05:40:32;;;;;;;5.43;3.10;;;;;;;;;;5108953;27;20422;-75
2022/09/04 05:43:01;;;;;;;7.25;2.97;;;;;;;;;;5091114;28;20424;-75
2022/09/04 05:45:27;;;;;;;6.53;3.10;;;;;;;;;;5094878;28;20419;-75
2022/09/04 05:48:05;;;;;;;7.43;3.10;;;;;;;;;;5076869;27;21432;-75
2022/09/04 05:51:15;;;;;;;11.87;3.20;;;14.70;99.90;;;;;;5111801;27;20937;-76
2022/09/04 05:53:44;;;;;;;5.43;3.10;;;14.70;99.90;;;;;;5105502;28;20424;-76
2022/09/04 05:56:28;;;;;;;5.05;3.00;;;15.10;99.90;;;;;;5101349;27;20410;-76
2022/09/04 05:59:03;;;;;;;5.88;2.80;;;;;;;;;;5074155;28;20912;-76
2022/09/04 06:02:01;;;;;;;7.38;3.05;;;15.20;99.90;;;;;;5075913;28;20532;-76
2022/09/04 06:04:49;;;;;;;5.38;2.92;;;15.30;99.90;;;;;;5093339;27;20410;-76
2022/09/04 06:07:30;;;;;;;8.98;3.20;;;15.10;99.90;;;;;;5091531;27;20493;-76
2022/09/04 06:10:08;;;;;;;6.55;2.95;;;;;;;;;;5097939;28;20423;-78
2022/09/04 06:12:53;;;;;;;7.15;3.20;;;15.50;99.90;;;;;;5094741;27;20433;-77
2022/09/04 06:15:26;;;;;;;5.95;2.95;;;;;;;;;;5099686;27;20430;-77
2022/09/04 06:18:31;;;;;;;5.22;3.10;;;15.40;99.90;;;;;;5076676;27;20532;-77
2022/09/04 06:21:23;;;;;;;5.95;2.92;;;;;;;;;;5087734;28;20434;-76
2022/09/04 06:23:49;;;;;;;5.65;3.10;;;;;;;;;;5068879;28;20431;-79
2022/09/04 06:26:26;;;;;;;6.60;3.13;;;15.50;99.90;;;;;;5078408;28;20414;-78
2022/09/04 06:29:37;;;;;;;5.47;3.08;;;15.50;99.90;;;;;;5090441;28;20420;-78
2022/09/04 06:32:20;;;;;;;5.25;3.20;;;;;;;;;;5053320;28;20462;-78
2022/09/04 06:34:57;;;;;;;6.70;3.28;;;;;;;;;;5085170;28;20439;-78
2022/09/04 06:37:32;;;;;;;7.75;3.22;;;;;;;;;;5097887;28;20447;-77
2022/09/04 06:40:12;;;;;;;7.45;3.28;;;;;;;;;;5083762;28;20402;-77
2022/09/04 06:42:55;;;;;;;8.38;3.33;;;;;;;;;;5092728;28;20919;-77
2022/09/04 06:45:48;;;;;;;5.27;3.00;;;15.80;99.90;;;;;;5080447;28;20423;-78
2022/09/04 06:48:46;;;;;;;5.75;3.13;;;;;;;;;;5077665;28;20506;-77
2022/09/04 06:51:19;;;;;;;8.35;3.42;;;;;;;;;;5031159;28;20901;-77
2022/09/04 06:54:17;;;;;;;6.77;3.00;;;16.40;99.90;;;;;;5096905;28;20953;-77
2022/09/04 06:56:54;;;;;;;6.72;3.30;;;16.40;99.90;;;;;;5074226;28;20421;-78
2022/09/04 06:59:31;;;;;;;5.63;3.23;;;;;;;;;;5102449;28;20423;-75
2022/09/04 07:02:32;;;;;;;7.65;3.22;;;16.70;99.90;;;;;;5098768;28;20903;-76
2022/09/04 07:05:16;;;;;;;7.60;2.90;;;;;;;;;;5096856;28;20406;-77
2022/09/04 07:08:26;;;;;;;5.28;3.30;;;17.00;99.90;;;;;;5093634;27;20411;-77
2022/09/04 07:11:11;;;;;;;5.78;2.90;;;;;;;;;;5032486;28;20418;-77
2022/09/04 07:13:53;;;;;;;5.35;3.13;;;;;;;;;;5016165;28;20407;-76
2022/09/04 07:16:25;;;;;;;6.00;3.00;;;;;;;;;;5074769;28;20423;-76
2022/09/04 07:18:54;;;;;;;7.65;3.20;;;;;;;;;;5068703;27;20419;-76
2022/09/04 07:21:38;;;;;;;5.50;3.10;;;17.50;99.90;;;;;;5117809;27;20425;-76
2022/09/04 07:24:31;;;;;;;7.65;3.20;;;17.80;99.90;;;;;;5088709;28;20423;-76
2022/09/04 07:27:24;;;;;;;5.70;3.05;;;17.70;99.90;;;;;;5106023;27;20588;-79
2022/09/04 07:29:57;;;;;;;5.10;2.90;;;18.00;99.90;;;;;;5107927;27;20909;-75
2022/09/04 07:32:32;;;;;;;5.65;2.92;;;18.10;99.90;;;;;;5098185;28;20957;-78
2022/09/04 07:35:02;;;;;;;6.00;3.07;;;;;;;;;;5098216;28;20514;-77
2022/09/04 07:37:45;;;;;;;5.90;2.80;;;18.30;99.90;;;;;;5094472;28;20507;-77
2022/09/04 07:40:49;;;;;;;9.40;2.72;;;18.50;99.90;;;;;;5093595;28;20416;-76
2022/09/04 07:43:36;;;;;;;6.75;2.90;;;;;;;;;;5068313;27;20476;-77
2022/09/04 07:46:04;;;;;;;4.80;2.63;;;19.00;99.90;;;;;;5097554;28;20772;-75
2022/09/04 07:48:40;;;;;;;7.28;2.97;;;18.80;99.90;;;;;;5080407;28;20760;-77
2022/09/04 07:51:09;;;;;;;4.90;2.58;;;18.80;99.90;;;;;;5105147;27;20425;-79
2022/09/04 07:53:47;;;;;;;5.72;2.72;;;;;;;;;;5086309;28;20416;-77
2022/09/04 07:56:29;;;;;;;4.95;2.95;;;;;;;;;;5079590;28;20426;-78
2022/09/04 07:59:24;;;;;;;6.32;2.90;;;19.10;99.90;;;;;;5077141;28;20418;-75
2022/09/04 08:01:59;;;;;;;5.95;2.95;;;19.20;99.90;;;;;;5095142;27;20415;-76
2022/09/04 08:04:58;;;;;;;6.57;3.25;;;19.00;99.90;;;;;;5087307;27;20497;-75
2022/09/04 08:08:03;;;;;;;4.43;2.70;;;19.40;99.90;;;;;;5056858;28;20417;-76
2022/09/04 08:10:37;;;;;;;5.28;2.90;;;19.80;99.90;;;;;;5058700;27;20929;-77
2022/09/04 08:13:47;;;;;;;6.07;2.90;;;19.70;99.90;;;;;;5100790;27;20493;-76
2022/09/04 08:16:48;;;;;;;6.30;2.80;;;19.50;99.90;;;;;;5032286;27;20458;-76
2022/09/04 08:19:32;;;;;;;7.10;2.80;;;19.50;99.90;;;;;;5015951;28;20432;-75
2022/09/04 08:22:03;;;;;;;6.22;3.08;;;19.80;99.90;;;;;;5108980;27;20476;-80
2022/09/04 08:24:54;;;;;;;7.53;2.75;;;20.10;99.90;;;;;;5080620;28;20439;-79
2022/09/04 08:27:34;;;;;;;5.53;2.50;;;20.60;99.90;;;;;;5083654;27;20418;-80
2022/09/04 08:30:09;;;;;;;8.25;3.22;;;20.40;99.90;;;;;;5078915;28;20461;-76
2022/09/04 08:32:59;;;;;;;5.47;2.63;;;20.50;99.90;;;;;;5095180;28;20419;-77
2022/09/04 08:35:52;;;;;;;8.77;2.90;;;20.70;99.90;;;;;;5092892;28;20467;-77
2022/09/04 08:38:29;;;;;;;4.22;2.45;;;20.50;99.90;;;;;;5083322;27;20921;-77
2022/09/04 08:41:21;;;;;;;5.35;2.53;;;21.00;99.90;;;;;;5095355;27;20416;-76
2022/09/04 08:43:50;;;;;;;6.38;2.47;;;20.90;99.90;;;;;;5102418;27;20524;-79
2022/09/04 08:46:47;;;;;;;5.55;2.50;;;21.30;99.90;;;;;;5120303;27;20419;-79
2022/09/04 08:49:16;;;;;;;6.65;2.28;;;21.80;99.90;;;;;;5106139;28;20420;-79
2022/09/04 08:52:03;;;;;;;5.40;2.60;;;21.80;99.90;;;;;;5090651;28;20437;-78
2022/09/04 08:54:35;;;;;;;5.70;2.72;;;21.80;99.90;;;;;;5081831;28;20489;-78
2022/09/04 08:57:25;;;;;;;5.20;2.28;;;21.90;99.90;;;;;;5082431;28;20402;-79
2022/09/04 09:00:09;;;;;;;5.13;2.20;;;22.20;99.90;;;;;;5101864;27;20445;-78
2022/09/04 09:03:13;;;;;;;7.43;2.38;;;22.20;99.90;;;;;;5098132;27;20538;-76
2022/09/04 09:06:05;;;;;;;4.38;2.42;;;22.10;99.90;;;;;;5112100;27;20986;-77
2022/09/04 09:08:37;;;;;;;5.83;2.50;;;21.70;99.90;;;;;;5084857;28;20424;-77
2022/09/04 09:11:37;;;;;;;4.78;2.47;;;21.80;99.90;;;;;;5102663;27;20476;-79
2022/09/04 09:14:05;;;;;;;6.25;2.35;;;22.20;99.90;;;;;;5076709;28;20825;-77
2022/09/04 09:17:11;;;;;;;4.60;2.40;;;22.50;99.90;;;;;;5076964;28;20428;-76
2022/09/04 09:19:56;;;;;;;3.50;2.17;;;22.50;99.90;;;;;;5103624;28;20478;-77
2022/09/04 09:22:37;;;;;;;5.45;2.30;;;23.10;99.90;;;;;;5097751;28;20412;-77
2022/09/04 09:25:19;;;;;;;4.33;2.20;;;23.40;99.90;;;;;;5095233;28;20801;-76
2022/09/04 09:28:24;;;;;;;6.50;2.40;;;23.40;99.90;;;;;;5094018;27;20446;-76
2022/09/04 09:31:21;;;;;;;3.42;2.20;;;23.20;99.90;;;;;;5094322;27;20422;-76
2022/09/04 09:34:20;;;;;;;8.82;2.40;;;23.40;99.90;;;;;;5086177;27;20579;-77
2022/09/04 09:37:01;;;;;;;6.55;2.17;;;23.60;99.90;;;;;;5093130;28;20428;-77
2022/09/04 09:39:42;;;;;;;5.30;2.25;;;23.80;99.90;;;;;;5071416;27;20422;-78
2022/09/04 09:42:29;;;;;;;5.15;2.10;;;24.00;99.90;;;;;;5096830;28;20415;-77
2022/09/04 09:45:17;;;;;;;5.85;2.20;;;24.00;99.90;;;;;;5098872;27;20410;-77
2022/09/04 09:47:58;;;;;;;4.82;1.92;;;24.20;99.90;;;;;;5097917;27;20450;-77
2022/09/04 09:50:45;;;;;;;5.47;2.10;;;24.00;99.90;;;;;;5101277;28;20739;-79
2022/09/04 09:53:45;;;;;;;4.43;2.08;;;23.90;99.90;;;;;;5076301;28;20562;-77
2022/09/04 09:56:41;;;;;;;3.60;2.10;;;23.80;99.90;;;;;;5090381;28;20512;-77
2022/09/04 09:59:09;;;;;;;3.50;2.13;;;23.90;99.90;;;;;;5100118;28;20456;-77
2022/09/04 10:01:56;;;;;;;5.15;2.05;;;23.90;99.90;;;;;;5095705;27;20453;-77
2022/09/04 10:04:53;;;;;;;4.05;2.10;;;24.10;99.90;;;;;;5079603;27;20424;-77
2022/09/04 10:07:43;;;;;;;5.70;2.03;;;24.60;99.90;;;;;;5084608;27;20419;-77
2022/09/04 10:10:46;;;;;;;4.83;2.00;;;24.60;99.90;;;;;;5110285;27;20928;-78
2022/09/04 10:13:34;;;;;;;5.70;2.13;;;24.40;99.90;;;;;;5083406;27;20411;-77
2022/09/04 10:16:14;;;;;;;4.43;2.10;;;24.40;99.90;;;;;;5097191;27;20950;-78
2022/09/04 10:19:11;;;;;;;4.72;2.03;;;24.10;99.90;;;;;;5107608;27;20410;-78
2022/09/04 10:21:40;;;;;;;7.73;2.20;;;24.40;99.90;;;;;;5099726;27;20486;-78
2022/09/04 10:24:40;;;;;;;5.63;1.92;;;24.60;99.90;;;;;;5077990;28;20425;-78
2022/09/04 10:27:21;;;;;;;3.00;1.90;;;24.60;99.90;;;;;;5099202;28;20423;-78
2022/09/04 10:30:14;;;;;;;4.57;2.10;;;25.00;99.90;;;;;;5097560;28;20469;-77
2022/09/04 10:33:25;;;;;;;4.78;2.10;;;24.70;99.90;;;;;;5092931;28;20472;-77
2022/09/04 10:36:21;;;;;;;4.87;2.30;;;24.60;99.90;;;;;;5114211;28;20914;-78
2022/09/04 10:42:27;;;;;;;2.80;1.92;;;25.00;99.90;;;;;;5076500;28;20420;-79
2022/09/04 10:45:14;;;;;;;4.43;2.20;;;25.30;99.90;;;;;;5106316;27;20410;-78
2022/09/04 10:48:02;;;;;;;4.47;2.00;;;25.50;99.90;;;;;;5077372;28;20489;-79
2022/09/04 10:50:56;;;;;;;4.93;2.20;;;25.30;99.90;;;;;;5079153;27;20408;-76
2022/09/04 10:53:38;;;;;;;5.55;2.00;;;25.20;99.90;;;;;;5093080;27;20412;-78
2022/09/04 10:56:08;;;;;;;5.25;1.95;;;25.50;99.90;;;;;;5081875;27;20445;-78
2022/09/04 10:58:38;;;;;;;4.57;2.10;;;25.40;99.90;;;;;;5096058;27;20420;-78
2022/09/04 11:01:26;;;;;;;3.90;2.10;;;25.50;99.90;;;;;;5083440;27;20509;-79
2022/09/04 11:04:33;;;;;;;3.77;2.03;;;25.40;99.90;;;;;;5109859;27;20463;-79
2022/09/04 11:07:21;;;;;;;5.35;2.40;;;25.50;99.90;;;;;;5076406;28;20427;-78
2022/09/04 11:09:52;;;;;;;2.60;1.90;;;25.20;99.90;;;;;;5068354;28;20427;-77
2022/09/04 11:12:56;;;;;;;4.40;2.15;;;25.70;99.90;;;;;;5086518;27;20425;-77
2022/09/04 11:16:08;;;;;;;5.18;2.05;;;25.30;99.90;;;;;;5077252;28;20420;-77
2022/09/04 11:18:52;;;;;;;4.53;2.27;;;25.70;99.90;;;;;;5046738;28;20415;-78
2022/09/04 11:21:55;;;;;;;4.35;2.00;;;26.00;99.90;;;;;;5107813;27;20410;-77
2022/09/04 11:25:04;;;;;;;3.28;1.80;;;26.00;99.90;;;;;;5077691;27;20433;-79
2022/09/04 11:27:57;;;;;;;4.97;1.98;;;25.70;99.90;;;;;;5087057;28;20409;-78
2022/09/04 11:30:31;;;;;;;3.88;1.98;;;25.70;99.90;;;;;;5070542;28;20435;-76
2022/09/04 11:33:29;;;;;;;6.38;2.00;;;26.00;99.90;;;;;;5103158;27;20418;-76
2022/09/04 11:36:17;;;;;;;3.22;2.00;;;26.10;99.90;;;;;;5090775;27;20462;-75
2022/09/04 11:39:02;;;;;;;3.55;2.05;;;26.40;99.90;;;;;;5089436;27;20513;-76
2022/09/04 11:41:49;;;;;;;3.70;1.90;;;26.10;99.90;;;;;;5083390;28;20426;-76
2022/09/04 11:44:45;;;;;;;5.43;2.10;;;26.10;99.90;;;;;;5068675;28;20756;-77
2022/09/04 11:47:19;;;;;;;3.65;1.88;;;26.50;99.90;;;;;;5109097;27;20543;-77
2022/09/04 11:50:36;;;;;;;3.95;1.85;;;26.60;99.90;;;;;;5109680;28;20419;-80
2022/09/04 11:53:27;;;;;;;5.13;2.03;;;27.00;99.90;;;;;;5065372;27;20533;-81
2022/09/04 11:56:12;;;;;;;2.80;2.00;;;26.60;99.90;;;;;;5082885;27;20586;-80
2022/09/04 11:59:03;;;;;;;3.30;2.03;;;26.80;99.90;;;;;;5075045;27;20922;-82
2022/09/04 12:01:51;;;;;;;3.20;1.92;;;26.50;99.90;;;;;;5098272;27;20898;-80
2022/09/04 12:04:59;;;;;;;2.58;1.90;;;26.80;99.90;;;;;;5107873;28;20413;-82
2022/09/04 12:07:47;;;;;;;4.57;2.05;;;26.50;99.90;;;;;;5077751;27;20417;-81
2022/09/04 12:10:22;;;;;;;4.68;2.03;;;26.70;99.90;;;;;;5081535;28;20427;-81
2022/09/04 12:13:05;;;;;;;3.08;1.88;;;26.80;99.90;;;;;;5085082;28;20422;-79
2022/09/04 12:15:54;;;;;;;4.22;2.20;;;26.90;99.90;;;;;;5093802;28;20412;-83
2022/09/04 12:18:50;;;;;;;2.80;2.05;;;27.10;99.90;;;;;;5097552;28;20469;-83
2022/09/04 12:21:17;;;;;;;3.90;1.88;;;27.10;99.90;;;;;;5071129;28;20439;-80
2022/09/04 12:24:01;;;;;;;3.47;2.00;;;26.80;99.90;;;;;;5099107;27;20409;-82
2022/09/04 12:26:56;;;;;;;5.07;2.07;;;27.20;99.90;;;;;;5094303;28;21017;-81
2022/09/04 12:29:37;;;;;;;4.80;2.00;;;26.80;99.90;;;;;;5072452;28;20432;-81
2022/09/04 12:32:37;;;;;;;3.80;2.10;;;27.40;99.90;;;;;;5084392;27;20940;-81
2022/09/04 12:35:53;;;;;;;6.47;2.05;;;27.20;99.90;;;;;;5107299;27;20461;-82
2022/09/04 12:38:24;;;;;;;3.90;2.00;;;27.50;99.90;;;;;;5052581;28;20954;-82
2022/09/04 12:40:52;;;;;;;3.80;2.08;;;27.60;99.90;;;;;;5088031;27;20743;-81
2022/09/04 12:43:51;;;;;;;4.40;2.00;;;26.90;99.80;;;;;;5111711;27;20488;-82
2022/09/04 12:46:49;;;;;;;3.90;2.08;;;27.40;99.90;;;;;;5091700;28;20405;-81
2022/09/04 12:49:57;;;;;;;3.90;1.98;;;27.30;99.90;;;;;;5086589;27;20491;-82
2022/09/04 12:52:42;;;;;;;5.18;2.03;;;27.30;99.90;;;;;;5076197;28;20555;-81
2022/09/04 12:55:18;;;;;;;6.35;2.20;;;27.70;99.90;;;;;;5099081;27;20446;-82
2022/09/04 12:58:20;;;;;;;3.85;2.00;;;28.00;99.40;;;;;;5100989;28;20504;-83
2022/09/04 13:01:30;;;;;;;3.65;2.00;;;28.00;99.90;;;;;;5090516;28;20420;-81
2022/09/04 13:04:18;;;;;;;4.80;2.15;;;27.80;99.40;;;;;;5090080;27;20502;-80
2022/09/04 13:07:08;;;;;;;3.80;1.92;;;27.80;99.40;;;;;;5087213;28;20428;-81
2022/09/04 13:09:53;;;;;;;7.72;2.10;;;27.90;99.50;;;;;;5081578;27;20539;-80
2022/09/04 13:12:49;;;;;;;3.63;1.80;;;28.60;99.10;;;;;;5097828;27;20541;-81
2022/09/04 13:15:24;;;;;;;6.60;2.03;;;28.00;99.60;;;;;;5054787;28;20480;-80
2022/09/04 13:18:32;;;;;;;3.47;2.10;;;27.90;98.70;;;;;;5094034;28;20409;-80
2022/09/04 13:21:28;;;;;;;3.88;2.10;;;27.80;99.00;;;;;;5024356;28;20419;-80
2022/09/04 13:24:26;;;;;;;3.40;1.92;;;27.70;99.00;;;;;;5098493;27;20390;-79
2022/09/04 13:27:20;;;;;;;3.85;2.10;;;27.70;99.40;;;;;;5063920;28;20420;-79
2022/09/04 13:30:01;;;;;;;5.72;2.08;;;28.20;99.80;;;;;;5093985;28;20501;-79
2022/09/04 13:32:57;;;;;;;3.60;1.80;;;28.10;98.80;;;;;;5075296;28;20480;-81
2022/09/04 13:35:43;;;;;;;3.22;1.90;;;28.40;98.80;;;;;;5094305;28;20420;-80
2022/09/04 13:38:36;;;;;;;4.63;2.20;;;28.60;98.50;;;;;;5102083;28;20412;-80
2022/09/04 13:41:30;;;;;;;3.97;2.03;;;28.20;98.70;;;;;;5089821;28;20973;-80
2022/09/04 13:44:42;;;;;;;3.03;1.90;;;28.30;98.60;;;;;;5057744;28;20483;-80
2022/09/04 13:47:21;;;;;;;4.03;2.13;;;28.20;99.10;;;;;;5072825;27;20411;-80
2022/09/04 13:50:23;;;;;;;3.05;2.10;;;28.60;99.60;;;;;;5085169;28;20413;-80
2022/09/04 13:53:05;;;;;;;3.77;2.27;;;27.70;99.30;;;;;;5069950;28;20414;-80
2022/09/04 13:55:38;;;;;;;4.45;2.42;;;27.70;99.90;;;;;;5076603;28;20428;-80
2022/09/04 13:58:18;;;;;;;3.28;1.90;;;27.90;99.90;;;;;;5102399;27;20487;-80
2022/09/04 14:00:49;;;;;;;4.47;2.10;;;28.40;99.90;;;;;;5080938;28;20532;-80
2022/09/04 14:03:47;;;;;;;3.40;2.00;;;28.30;99.10;;;;;;5077784;28;20428;-80
2022/09/04 14:06:16;;;;;;;4.80;2.05;;;27.60;99.70;;;;;;5085246;28;20509;-79
2022/09/04 14:08:44;;;;;;;4.97;2.17;;;27.70;99.70;;;;;;5103269;28;20454;-79
2022/09/04 14:11:32;;;;;;;4.25;1.98;;;27.70;99.80;;;;;;5072002;28;20425;-80
2022/09/04 14:14:10;;;;;;;3.03;2.08;;;27.80;99.40;;;;;;5077284;28;20401;-80
2022/09/04 14:16:42;;;;;;;5.70;2.20;;;27.60;99.30;;;;;;5094089;28;20421;-81
2022/09/04 14:19:41;;;;;;;5.33;2.10;;;27.40;99.90;;;;;;5083322;28;20531;-80
2022/09/04 14:22:25;;;;;;;4.55;2.17;;;27.90;99.60;;;;;;5079220;27;20417;-81
2022/09/04 14:25:16;;;;;;;4.30;2.20;;;28.20;99.60;;;;;;5074094;28;20394;-80
2022/09/04 14:28:21;;;;;;;4.10;2.20;;;28.30;99.50;;;;;;5078518;27;20416;-80
2022/09/04 14:31:18;;;;;;;4.45;2.25;;;28.10;99.70;;;;;;5085775;28;20427;-80
2022/09/04 14:33:55;;;;;;;3.22;2.10;;;28.10;99.10;;;;;;5106646;28;20410;-80
2022/09/04 14:36:55;;;;;;;4.10;2.30;;;28.00;99.30;;;;;;5101433;28;20916;-80
2022/09/04 14:39:46;;;;;;;5.22;2.17;;;27.80;99.90;;;;;;5073675;28;20535;-81
2022/09/04 14:42:42;;;;;;;4.53;2.20;;;27.90;99.90;;;;;;5057888;28;20749;-81
2022/09/04 14:45:34;;;;;;;5.00;2.20;;;27.90;99.10;;;;;;5076824;28;20437;-80
2022/09/04 14:48:05;;;;;;;5.43;1.90;;;28.00;99.30;;;;;;5073985;28;20406;-80
2022/09/04 14:50:42;;;;;;;6.85;2.20;;;28.10;99.60;;;;;;5070223;28;20434;-82
2022/09/04 14:53:09;;;;;;;4.13;2.08;;;28.10;99.60;;;;;;5080646;28;20418;-83
2022/09/04 14:55:39;;;;;;;6.53;2.40;;;28.30;99.40;;;;;;5092966;28;20932;-81
2022/09/04 14:58:18;;;;;;;3.70;2.00;;;28.30;99.40;;;;;;5077439;28;20396;-81